Hartland Point — ZIQS6 — position and weather

sailwx.info

Track history (hours):
 
Tides and Currents Weather Stations Pressure Air Temp Water Temp Dewpoint Dewpoint Depression Visibility Wind Speed Wind Dir Waves Ship Positions

Hartland Point

Last reported at 2018-Feb-07 08:25 UTC. Time now 2018-Feb-18 07:19 UTC.
Position N 56°00' W 003°24'.
Warning: this ship's position is 10 days out of date.

Length 193 m; draft 5.6 m.

Type: Cargo ship. MMSI: 235505000.

Date/timePositionNaut miles runAvg speedWind from/ knotsBaromVisibWave heightAir tempDewpointWater temp
2018-Feb-07 08:25N 56°00' W 003°24'511.5
2018-Feb-07 07:59N 56°02' W 003°15'1212.1
2018-Feb-07 07:00N 56°05' W 002°55'612.1
2018-Feb-07 06:30N 56°06' W 002°44'612.7
2018-Feb-07 06:00N 56°05' W 002°33'612.9
2018-Feb-07 05:30N 56°03' W 002°22'612.7
2018-Feb-07 05:00N 56°01' W 002°11'612.9
2018-Feb-07 04:30N 55°58' W 002°01'612.9
2018-Feb-07 04:00N 55°54' W 001°51'713.1
2018-Feb-07 03:30N 55°51' W 001°41'713.3
2018-Feb-07 03:00N 55°47' W 001°31'813.4
2018-Feb-07 02:24N 55°43' W 001°20'17510.8
2018-Feb-06 10:10N 53°17' E 001°28'2 9.3
2018-Feb-06 10:00N 53°16' E 001°29'5 9.6
2018-Feb-06 09:30N 53°11' E 001°29'2010.1
2018-Feb-06 07:30N 52°52' E 001°43'1313.0
2018-Feb-06 06:29N 52°45' E 002°01'3412.9
2018-Feb-06 03:50N 52°12' E 001°53'2910.4
2018-Feb-06 01:00N 51°42' E 001°49'5 9.2
2018-Feb-06 00:30N 51°38' E 001°49'5 9.2
2018-Feb-06 00:00N 51°33' E 001°48'5 9.0
2018-Feb-05 23:30N 51°29' E 001°47'4 8.9
2018-Feb-05 23:00N 51°25' E 001°45'9 9.2
2018-Feb-05 22:00N 51°16' E 001°41'12 8.1
2018-Feb-05 20:30N 51°04' E 001°37'4 8.9
2018-Feb-05 20:00N 51°00' E 001°33'5 9.5
2018-Feb-05 19:30N 50°56' E 001°29'510.1
2018-Feb-05 18:59N 50°51' E 001°26'510.5
2018-Feb-05 18:30N 50°46' E 001°24'47 9.8
2018-Feb-05 13:43N 50°24' E 000°19'211.3
2018-Feb-05 13:30N 50°24' E 000°15'611.6
2018-Feb-05 12:58N 50°22' E 000°06'611.6
2018-Feb-05 12:27N 50°21' W 000°03'511.6
2018-Feb-05 11:59N 50°23' W 000°11'611.9
2018-Feb-05 11:29N 50°26' W 000°19'611.9
2018-Feb-05 10:59N 50°29' W 000°27'611.4
2018-Feb-05 10:30N 50°32' W 000°35'611.9
2018-Feb-05 10:00N 50°35' W 000°43'1212.2
2018-Feb-05 09:01N 50°42' W 000°58'713.0
2018-Feb-05 08:30N 50°45' W 001°08'714.4
2018-Feb-05 08:00N 50°47' W 001°19'5 9.8
2018-Feb-05 07:30N 50°51' W 001°21'3 6.6
2018-Feb-05 06:59N 50°54' W 001°25'0 0.0
2018-Feb-05 06:29N 50°54' W 001°25'0 0.0
2018-Feb-05 05:29N 50°54' W 001°25'0 0.0
2018-Feb-05 04:59N 50°54' W 001°25'0 0.0
2018-Feb-05 04:26N 50°54' W 001°25'0 0.0
2018-Feb-05 03:59N 50°54' W 001°25'0 0.0
2018-Feb-05 03:29N 50°54' W 001°25'0 0.0
2018-Feb-05 02:59N 50°54' W 001°25'0 0.0
2018-Feb-05 02:29N 50°54' W 001°25'0 0.0
2018-Feb-05 01:59N 50°54' W 001°25'0 0.0
2018-Feb-05 01:29N 50°54' W 001°25'0 0.0
2018-Feb-05 00:59N 50°54' W 001°25'0 0.0
2018-Feb-05 00:29N 50°54' W 001°25'0 0.0
2018-Feb-04 23:59N 50°54' W 001°25'0 0.0
2018-Feb-04 23:29N 50°54' W 001°25'0 0.0
2018-Feb-04 22:59N 50°54' W 001°25'0 0.0
2018-Feb-04 22:29N 50°54' W 001°25'0 0.0
2018-Feb-04 21:59N 50°54' W 001°25'0 0.0
2018-Feb-04 21:29N 50°54' W 001°25'0 0.0
2018-Feb-04 20:59N 50°54' W 001°25'0 0.0
2018-Feb-04 19:59N 50°54' W 001°25'0 0.0
2018-Feb-04 19:29N 50°54' W 001°25'0 0.0
2018-Feb-04 18:59N 50°54' W 001°25'0 0.0
2018-Feb-04 18:29N 50°54' W 001°25'0 0.0
2018-Feb-04 17:59N 50°54' W 001°25'0 0.0
2018-Feb-04 17:29N 50°54' W 001°25'0 0.0
2018-Feb-04 15:29N 50°54' W 001°25'0 0.0
2018-Feb-04 14:59N 50°54' W 001°25'0 0.0
2018-Feb-04 14:29N 50°54' W 001°25'0 0.0
2018-Feb-04 13:59N 50°54' W 001°25'0 0.0
2018-Feb-04 13:26N 50°54' W 001°25'0 0.0
2018-Feb-04 12:59N 50°54' W 001°25'0 0.0
2018-Feb-04 12:29N 50°54' W 001°25'0 0.0
2018-Feb-04 11:59N 50°54' W 001°25'0 0.0
2018-Feb-04 11:29N 50°54' W 001°25'0 0.0
2018-Feb-04 09:59N 50°54' W 001°25'0 0.0
2018-Feb-04 08:59N 50°54' W 001°25'0 0.0
2018-Feb-04 08:29N 50°54' W 001°25'0 0.0
2018-Feb-04 07:59N 50°54' W 001°25'0 0.0
2018-Feb-04 07:29N 50°54' W 001°25'0 0.0
2018-Feb-04 06:59N 50°54' W 001°25'0 0.0
2018-Feb-04 06:29N 50°54' W 001°25'0 0.0
2018-Feb-04 05:59N 50°54' W 001°25'0 0.0
2018-Feb-04 05:29N 50°54' W 001°25'0 0.0
2018-Feb-04 04:59N 50°54' W 001°25'0 0.0
2018-Feb-04 04:29N 50°54' W 001°25'0 0.0
2018-Feb-04 03:59N 50°54' W 001°25'0 0.0
2018-Feb-04 03:29N 50°54' W 001°25'0 0.0
2018-Feb-04 02:59N 50°54' W 001°25'0 0.0
2018-Feb-04 02:29N 50°54' W 001°25'0 0.0
2018-Feb-04 01:59N 50°54' W 001°25'0 0.0
2018-Feb-04 01:29N 50°54' W 001°25'0 0.0
2018-Feb-04 00:56N 50°54' W 001°25'0 0.0
2018-Feb-04 00:29N 50°54' W 001°25'0 0.0
2018-Feb-03 23:59N 50°54' W 001°25'0 0.0
2018-Feb-03 23:26N 50°54' W 001°25'0 0.0
2018-Feb-03 22:59N 50°54' W 001°25'0 0.0
2018-Feb-03 22:29N 50°54' W 001°25'0 0.0
2018-Feb-03 21:59N 50°54' W 001°25'0 0.0
2018-Feb-03 21:29N 50°54' W 001°25'0 0.0
2018-Feb-03 20:59N 50°54' W 001°25'0 0.0
2018-Feb-03 20:29N 50°54' W 001°25'0 0.0
2018-Feb-03 19:59N 50°54' W 001°25'0 0.0
2018-Feb-03 18:29N 50°54' W 001°25'0 0.0
2018-Feb-03 17:59N 50°54' W 001°25'0 0.0
2018-Feb-03 17:29N 50°54' W 001°25'0 0.0
2018-Feb-03 16:59N 50°54' W 001°25'0 0.0
2018-Feb-03 15:59N 50°54' W 001°25'0 0.0
2018-Feb-03 15:29N 50°54' W 001°25'0 0.0
2018-Feb-03 14:59N 50°54' W 001°25'0 0.0
2018-Feb-03 14:29N 50°54' W 001°25'0 0.0
2018-Feb-03 13:59N 50°54' W 001°25'0 0.0
2018-Feb-03 13:29N 50°54' W 001°25'0 0.0
2018-Feb-03 12:59N 50°54' W 001°25'0 0.0
2018-Feb-03 12:23N 50°54' W 001°25'0 0.0
2018-Feb-03 11:59N 50°54' W 001°25'0 0.0
2018-Feb-03 11:29N 50°54' W 001°25'0 0.0
2018-Feb-03 10:59N 50°54' W 001°25'0 0.0
2018-Feb-03 10:29N 50°54' W 001°25'0 0.0
2018-Feb-03 09:59N 50°54' W 001°25'0 0.0
2018-Feb-03 09:29N 50°54' W 001°25'0 0.0
2018-Feb-03 08:59N 50°54' W 001°25'0 0.0
2018-Feb-03 08:29N 50°54' W 001°25'0 0.0
2018-Feb-03 07:59N 50°54' W 001°25'0 0.0
2018-Feb-03 06:29N 50°54' W 001°25'0 0.0
2018-Feb-03 05:59N 50°54' W 001°25'0 0.0
2018-Feb-03 05:29N 50°54' W 001°25'0 0.0
2018-Feb-03 04:59N 50°54' W 001°25'0 0.0
2018-Feb-03 03:59N 50°54' W 001°25'0 0.0
2018-Feb-03 03:29N 50°54' W 001°25'0 0.0
2018-Feb-03 01:59N 50°54' W 001°25'0 0.0
2018-Feb-03 01:29N 50°54' W 001°25'0 0.0
2018-Feb-03 00:59N 50°54' W 001°25'0 0.0
2018-Feb-03 00:29N 50°54' W 001°25'0 0.0
2018-Feb-02 23:59N 50°54' W 001°25'0 0.0
2018-Feb-02 23:29N 50°54' W 001°25'0 0.0
2018-Feb-02 22:56N 50°54' W 001°25'0 0.0
2018-Feb-02 22:29N 50°54' W 001°25'0 0.0
2018-Feb-02 21:59N 50°54' W 001°25'0 0.0
2018-Feb-02 21:29N 50°54' W 001°25'0 0.0
2018-Feb-02 20:59N 50°54' W 001°25'0 0.0
2018-Feb-02 20:29N 50°54' W 001°25'0 0.0
2018-Feb-02 19:56N 50°54' W 001°25'0 0.0
2018-Feb-02 18:59N 50°54' W 001°25'0 0.0
2018-Feb-02 18:29N 50°54' W 001°25'0 0.0
2018-Feb-02 17:59N 50°54' W 001°25'0 0.0
2018-Feb-02 17:29N 50°54' W 001°25'0 0.0
2018-Feb-02 16:59N 50°54' W 001°25'0 0.0
2018-Feb-02 16:26N 50°54' W 001°25'0 0.0
2018-Feb-02 15:29N 50°54' W 001°25'0 0.0
2018-Feb-02 14:29N 50°54' W 001°25'0 0.0
2018-Feb-02 13:59N 50°54' W 001°25'0 0.0
2018-Feb-02 13:26N 50°54' W 001°25'0 0.0
2018-Feb-02 12:59N 50°54' W 001°25'0 0.0
2018-Feb-02 12:29N 50°54' W 001°25'0 0.0
2018-Feb-02 11:59N 50°54' W 001°25'0 0.0
2018-Feb-02 11:29N 50°54' W 001°25'0 0.0
2018-Feb-02 10:59N 50°54' W 001°25'0 0.0
2018-Feb-02 10:29N 50°54' W 001°25'0 0.0
2018-Feb-02 09:59N 50°54' W 001°25'0 0.0
2018-Feb-02 09:29N 50°54' W 001°25'0 0.0
2018-Feb-02 08:59N 50°54' W 001°25'0 0.0
2018-Feb-02 08:29N 50°54' W 001°25'0 0.0
2018-Feb-02 07:59N 50°54' W 001°25'0 0.0
2018-Feb-02 07:29N 50°54' W 001°25'0 0.0
2018-Feb-02 06:59N 50°54' W 001°25'0 0.0
2018-Feb-02 06:29N 50°54' W 001°25'0 0.0
2018-Feb-02 05:59N 50°54' W 001°25'0 0.0
2018-Feb-02 05:29N 50°54' W 001°25'0 0.0
2018-Feb-02 04:59N 50°54' W 001°25'0 0.0
2018-Feb-02 04:29N 50°54' W 001°25'0 0.0
2018-Feb-02 03:59N 50°54' W 001°25'0 0.0
2018-Feb-02 03:29N 50°54' W 001°25'0 0.0
2018-Feb-02 02:59N 50°54' W 001°25'0 0.0
2018-Feb-02 02:26N 50°54' W 001°25'0 0.0
2018-Feb-02 01:59N 50°54' W 001°25'0 0.0
2018-Feb-02 01:29N 50°54' W 001°25'0 0.0
2018-Feb-02 00:59N 50°54' W 001°25'0 0.0
2018-Feb-02 00:26N 50°54' W 001°25'0 0.0
2018-Feb-01 23:59N 50°54' W 001°25'0 0.0
2018-Feb-01 23:29N 50°54' W 001°25'0 0.0
2018-Feb-01 22:59N 50°54' W 001°25'0 0.0
2018-Feb-01 21:59N 50°54' W 001°25'0 0.0
2018-Feb-01 21:29N 50°54' W 001°25'0 0.0
2018-Feb-01 19:29N 50°54' W 001°25'0 0.0
2018-Feb-01 18:59N 50°54' W 001°25'0 0.0
2018-Feb-01 18:29N 50°54' W 001°25'0 0.0
2018-Feb-01 17:59N 50°54' W 001°25'0 0.0
2018-Feb-01 17:29N 50°54' W 001°25'0 0.0
2018-Feb-01 16:56N 50°54' W 001°25'0 0.0
2018-Feb-01 16:29N 50°54' W 001°25'0 0.0
2018-Feb-01 15:59N 50°54' W 001°25'0 0.0
2018-Feb-01 15:29N 50°54' W 001°25'0 0.0
2018-Feb-01 14:59N 50°54' W 001°25'0 0.0
2018-Feb-01 13:29N 50°54' W 001°25'0 0.0
2018-Feb-01 12:59N 50°54' W 001°25'0 0.0
2018-Feb-01 12:29N 50°54' W 001°25'0 0.0
2018-Feb-01 11:59N 50°54' W 001°25'0 0.0
2018-Feb-01 10:59N 50°54' W 001°25'0 0.0
2018-Feb-01 10:29N 50°54' W 001°25'0 0.0
2018-Feb-01 09:59N 50°54' W 001°25'0 0.0
2018-Feb-01 09:29N 50°54' W 001°25'0 0.0
2018-Feb-01 08:59N 50°54' W 001°25'0 0.0
2018-Feb-01 08:29N 50°54' W 001°25'0 0.0
2018-Feb-01 07:29N 50°54' W 001°25'0 0.0
2018-Feb-01 06:59N 50°54' W 001°25'0 0.0
2018-Feb-01 06:29N 50°54' W 001°25'0 0.0
2018-Feb-01 05:59N 50°54' W 001°25'0 0.0
2018-Feb-01 05:29N 50°54' W 001°25'0 0.0
2018-Feb-01 04:59N 50°54' W 001°25'0 0.0
2018-Feb-01 04:29N 50°54' W 001°25'0 0.0
2018-Feb-01 03:59N 50°54' W 001°25'0 0.0
2018-Feb-01 02:59N 50°54' W 001°25'0 0.0
2018-Feb-01 02:29N 50°54' W 001°25'0 0.0
2018-Feb-01 01:59N 50°54' W 001°25'0 0.0
2018-Feb-01 01:29N 50°54' W 001°25'0 0.0
2018-Feb-01 00:59N 50°54' W 001°25'0 0.0
2018-Feb-01 00:29N 50°54' W 001°25'0 0.0
2018-Jan-31 23:59N 50°54' W 001°25'0 0.0
2018-Jan-31 22:59N 50°54' W 001°25'0 0.0
2018-Jan-31 22:29N 50°54' W 001°25'0 0.0
2018-Jan-31 20:59N 50°54' W 001°25'0 0.0
2018-Jan-31 20:29N 50°54' W 001°25'0 0.0
2018-Jan-31 19:59N 50°54' W 001°25'0 0.0
2018-Jan-31 19:29N 50°54' W 001°25'0 0.0
2018-Jan-31 18:59N 50°54' W 001°25'0 0.0
2018-Jan-31 18:29N 50°54' W 001°25'0 0.0
2018-Jan-31 17:59N 50°54' W 001°25'0 0.0
2018-Jan-31 17:29N 50°54' W 001°25'0 0.0
2018-Jan-31 16:59N 50°54' W 001°25'0 0.0
2018-Jan-31 16:28N 50°54' W 001°25'0 0.0
2018-Jan-31 15:58N 50°54' W 001°25'0 0.0
2018-Jan-31 15:28N 50°54' W 001°25'0 0.0
2018-Jan-31 14:58N 50°54' W 001°25'0 0.0
2018-Jan-31 14:29N 50°54' W 001°25'0 0.0
2018-Jan-31 12:59N 50°54' W 001°25'0 0.0
2018-Jan-31 12:28N 50°54' W 001°25'0 0.0
2018-Jan-31 11:59N 50°54' W 001°25'0 0.0
2018-Jan-31 11:29N 50°54' W 001°25'0 0.0
2018-Jan-31 10:49N 50°54' W 001°25'0 0.0
2018-Jan-31 10:25N 50°54' W 001°25'0 0.0
2018-Jan-31 09:59N 50°54' W 001°25'0 0.0
2018-Jan-31 09:29N 50°54' W 001°25'0 0.0
2018-Jan-31 08:58N 50°54' W 001°25'0 0.0
2018-Jan-31 08:29N 50°54' W 001°25'0 0.0
2018-Jan-31 07:58N 50°54' W 001°25'0 0.0
2018-Jan-31 07:28N 50°54' W 001°25'0 0.0
2018-Jan-31 06:58N 50°54' W 001°25'0 0.0
2018-Jan-31 06:28N 50°54' W 001°25'0 0.0
2018-Jan-31 05:59N 50°54' W 001°25'0 0.0
2018-Jan-31 05:25N 50°54' W 001°25'0 0.0
2018-Jan-31 04:55N 50°54' W 001°25'0 0.0
2018-Jan-31 04:28N 50°54' W 001°25'0 0.0
2018-Jan-31 03:58N 50°54' W 001°25'0 0.0
2018-Jan-31 03:28N 50°54' W 001°25'0 0.0
2018-Jan-31 02:59N 50°54' W 001°25'0 0.0
2018-Jan-31 02:28N 50°54' W 001°25'0 0.0
2018-Jan-31 01:58N 50°54' W 001°25'0 0.0
2018-Jan-31 01:28N 50°54' W 001°25'0 0.0
2018-Jan-31 00:58N 50°54' W 001°25'0 0.0
2018-Jan-30 23:58N 50°54' W 001°25'0 0.0
2018-Jan-30 23:28N 50°54' W 001°25'0 0.0
2018-Jan-30 22:58N 50°54' W 001°25'0 0.0
2018-Jan-30 22:28N 50°54' W 001°25'0 0.0
2018-Jan-30 21:25N 50°54' W 001°25'0 0.0
2018-Jan-30 20:59N 50°54' W 001°25'0 0.0
2018-Jan-30 20:28N 50°54' W 001°25'0 0.0
2018-Jan-30 19:58N 50°54' W 001°25'0 0.0
2018-Jan-30 19:28N 50°54' W 001°25'0 0.0
2018-Jan-30 18:55N 50°54' W 001°25'0 0.0
2018-Jan-30 18:25N 50°54' W 001°25'0 0.0
2018-Jan-30 17:55N 50°54' W 001°25'0 0.0
2018-Jan-30 17:28N 50°54' W 001°25'0 0.0
2018-Jan-30 16:58N 50°54' W 001°25'0 0.0
2018-Jan-30 16:28N 50°54' W 001°25'0 0.0
2018-Jan-30 15:58N 50°54' W 001°25'0 0.0
2018-Jan-30 15:31N 50°54' W 001°25'0 0.3
2018-Jan-30 15:01N 50°54' W 001°25'1 2.1
2018-Jan-30 14:31N 50°54' W 001°26'1 0.7
2018-Jan-30 13:30N 50°54' W 001°28'0 0.0
2018-Jan-30 12:45N 50°54' W 001°28'0 0.0
2018-Jan-30 12:18N 50°54' W 001°28'0 0.0
2018-Jan-30 11:48N 50°54' W 001°28'0 0.0
2018-Jan-30 11:30N 50°54' W 001°28'0 0.0
2018-Jan-30 10:30N 50°54' W 001°28'0 0.0
2018-Jan-30 08:03N 50°54' W 001°28'0 0.0
2018-Jan-30 07:39N 50°54' W 001°28'0 0.0
2018-Jan-30 07:17N 50°54' W 001°28'0 0.4
2018-Jan-30 07:00N 50°54' W 001°28'2 3.4
2018-Jan-30 06:30N 50°54' W 001°25'0 0.5
2018-Jan-30 05:59N 50°54' W 001°25'0 0.0
2018-Jan-30 05:29N 50°54' W 001°25'0 0.0
2018-Jan-30 04:59N 50°54' W 001°25'0 0.0
2018-Jan-30 04:30N 50°54' W 001°25'0 0.0
2018-Jan-30 04:00N 50°54' W 001°25'0 0.0
2018-Jan-30 03:29N 50°54' W 001°25'0 0.0
2018-Jan-30 02:59N 50°54' W 001°25'0 0.0
2018-Jan-30 02:29N 50°54' W 001°25'0 0.0
2018-Jan-30 01:59N 50°54' W 001°25'0 0.0
2018-Jan-30 01:29N 50°54' W 001°25'0 0.0
2018-Jan-30 00:59N 50°54' W 001°25'0 0.0
2018-Jan-30 00:29N 50°54' W 001°25'0 0.0
2018-Jan-29 23:59N 50°54' W 001°25'0 0.0
2018-Jan-29 23:29N 50°54' W 001°25'0 0.0
2018-Jan-29 22:56N 50°54' W 001°25'0 0.0
2018-Jan-29 22:26N 50°54' W 001°25'0 0.0
2018-Jan-29 21:59N 50°54' W 001°25'0 0.0
2018-Jan-29 21:29N 50°54' W 001°25'0 0.0
2018-Jan-29 20:59N 50°54' W 001°25'0 0.0
2018-Jan-29 20:29N 50°54' W 001°25'0 0.0
2018-Jan-29 19:59N 50°54' W 001°25'0 0.0
2018-Jan-29 19:29N 50°54' W 001°25'0 0.0
2018-Jan-29 18:59N 50°54' W 001°25'0 0.0
2018-Jan-29 18:29N 50°54' W 001°25'0 0.0
2018-Jan-29 17:59N 50°54' W 001°25'0 0.0
2018-Jan-29 17:29N 50°54' W 001°25'0 0.0
2018-Jan-29 16:59N 50°54' W 001°25'0 0.0
2018-Jan-29 16:29N 50°54' W 001°25'0 0.0
2018-Jan-29 15:59N 50°54' W 001°25'0 0.0
2018-Jan-29 15:29N 50°54' W 001°25'0 0.0
2018-Jan-29 14:59N 50°54' W 001°25'0 0.0
2018-Jan-29 14:29N 50°54' W 001°25'0 0.0
2018-Jan-29 13:59N 50°54' W 001°25'0 0.0
2018-Jan-29 13:29N 50°54' W 001°25'0 0.0
2018-Jan-29 12:59N 50°54' W 001°25'0 0.0
2018-Jan-29 12:30N 50°54' W 001°25'0 0.3
2018-Jan-29 12:00N 50°54' W 001°25'1 1.9
2018-Jan-29 11:30N 50°54' W 001°26'0 0.0
2018-Jan-29 11:00N 50°54' W 001°26'0 0.0
2018-Jan-29 10:30N 50°54' W 001°26'0 0.0
2018-Jan-29 10:00N 50°54' W 001°26'0 0.0
2018-Jan-29 09:30N 50°54' W 001°26'0 0.0
2018-Jan-29 09:00N 50°54' W 001°26'0 0.0
2018-Jan-29 08:30N 50°54' W 001°26'0 0.0
2018-Jan-29 08:00N 50°54' W 001°26'0 0.1
2018-Jan-29 07:30N 50°54' W 001°26'0 0.9
2018-Jan-29 07:00N 50°54' W 001°26'3 5.5
2018-Jan-29 06:30N 50°52' W 001°23'5 9.9
2018-Jan-29 06:01N 50°49' W 001°17'4 8.0
2018-Jan-29 05:31N 50°46' W 001°13'713.9
2018-Jan-29 05:00N 50°44' W 001°02'510.0
2018-Jan-29 04:30N 50°39' W 000°59'510.4
2018-Jan-29 04:01N 50°34' W 000°60'814.2
2018-Jan-29 03:26N 50°29' W 001°10'614.3
2018-Jan-29 03:00N 50°25' W 001°18'1314.3
2018-Jan-29 02:07N 50°18' W 001°33'314.2
2018-Jan-29 01:56N 50°16' W 001°37'614.0
2018-Jan-29 01:31N 50°12' W 001°44'713.9
2018-Jan-29 01:00N 50°08' W 001°53'714.1
2018-Jan-29 00:30N 50°04' W 002°02'2913.3
2018-Jan-28 22:21N 49°53' W 002°43'513.5
2018-Jan-28 21:58N 49°51' W 002°50'713.3
2018-Jan-28 21:26N 49°48' W 002°60'913.4
2018-Jan-28 20:46N 49°43' W 003°12'1213.3
2018-Jan-28 19:53N 49°37' W 003°27'512.9
2018-Jan-28 19:28N 49°34' W 003°34'6313.6
2018-Jan-28 14:49N 49°01' W 004°57'3314.4
2018-Jan-28 12:34N 48°44' W 005°39'1314.6
2018-Jan-28 11:38N 48°32' W 005°48'  
Track history (hours):
 
Tides and Currents Weather Stations Pressure Air Temp Water Temp Dewpoint Dewpoint Depression Visibility Wind Speed Wind Dir Waves Ship Positions

Hartland Point

Last reported at 2018-Feb-07 08:25 UTC. Time now 2018-Feb-18 07:19 UTC.
Position N 56°00' W 003°24'.
Warning: this ship's position is 10 days out of date.

Length 193 m; draft 5.6 m.

Type: Cargo ship. MMSI: 235505000.

Date/timePositionNaut miles runAvg speedWind from/ knotsBaromVisibWave heightAir tempDewpointWater temp
2018-Feb-07 08:25N 56°00' W 003°24'511.5
2018-Feb-07 07:59N 56°02' W 003°15'1212.1
2018-Feb-07 07:00N 56°05' W 002°55'612.1
2018-Feb-07 06:30N 56°06' W 002°44'612.7
2018-Feb-07 06:00N 56°05' W 002°33'612.9
2018-Feb-07 05:30N 56°03' W 002°22'612.7
2018-Feb-07 05:00N 56°01' W 002°11'612.9
2018-Feb-07 04:30N 55°58' W 002°01'612.9
2018-Feb-07 04:00N 55°54' W 001°51'713.1
2018-Feb-07 03:30N 55°51' W 001°41'713.3
2018-Feb-07 03:00N 55°47' W 001°31'813.4
2018-Feb-07 02:24N 55°43' W 001°20'17510.8
2018-Feb-06 10:10N 53°17' E 001°28'2 9.3
2018-Feb-06 10:00N 53°16' E 001°29'5 9.6
2018-Feb-06 09:30N 53°11' E 001°29'2010.1
2018-Feb-06 07:30N 52°52' E 001°43'1313.0
2018-Feb-06 06:29N 52°45' E 002°01'3412.9
2018-Feb-06 03:50N 52°12' E 001°53'2910.4
2018-Feb-06 01:00N 51°42' E 001°49'5 9.2
2018-Feb-06 00:30N 51°38' E 001°49'5 9.2
2018-Feb-06 00:00N 51°33' E 001°48'5 9.0
2018-Feb-05 23:30N 51°29' E 001°47'4 8.9
2018-Feb-05 23:00N 51°25' E 001°45'9 9.2
2018-Feb-05 22:00N 51°16' E 001°41'12 8.1
2018-Feb-05 20:30N 51°04' E 001°37'4 8.9
2018-Feb-05 20:00N 51°00' E 001°33'5 9.5
2018-Feb-05 19:30N 50°56' E 001°29'510.1
2018-Feb-05 18:59N 50°51' E 001°26'510.5
2018-Feb-05 18:30N 50°46' E 001°24'47 9.8
2018-Feb-05 13:43N 50°24' E 000°19'211.3
2018-Feb-05 13:30N 50°24' E 000°15'611.6
2018-Feb-05 12:58N 50°22' E 000°06'611.6
2018-Feb-05 12:27N 50°21' W 000°03'511.6
2018-Feb-05 11:59N 50°23' W 000°11'611.9
2018-Feb-05 11:29N 50°26' W 000°19'611.9
2018-Feb-05 10:59N 50°29' W 000°27'611.4
2018-Feb-05 10:30N 50°32' W 000°35'611.9
2018-Feb-05 10:00N 50°35' W 000°43'1212.2
2018-Feb-05 09:01N 50°42' W 000°58'713.0
2018-Feb-05 08:30N 50°45' W 001°08'714.4
2018-Feb-05 08:00N 50°47' W 001°19'5 9.8
2018-Feb-05 07:30N 50°51' W 001°21'3 6.6
2018-Feb-05 06:59N 50°54' W 001°25'0 0.0
2018-Feb-05 06:29N 50°54' W 001°25'0 0.0
2018-Feb-05 05:29N 50°54' W 001°25'0 0.0
2018-Feb-05 04:59N 50°54' W 001°25'0 0.0
2018-Feb-05 04:26N 50°54' W 001°25'0 0.0
2018-Feb-05 03:59N 50°54' W 001°25'0 0.0
2018-Feb-05 03:29N 50°54' W 001°25'0 0.0
2018-Feb-05 02:59N 50°54' W 001°25'0 0.0
2018-Feb-05 02:29N 50°54' W 001°25'0 0.0
2018-Feb-05 01:59N 50°54' W 001°25'0 0.0
2018-Feb-05 01:29N 50°54' W 001°25'0 0.0
2018-Feb-05 00:59N 50°54' W 001°25'0 0.0
2018-Feb-05 00:29N 50°54' W 001°25'0 0.0
2018-Feb-04 23:59N 50°54' W 001°25'0 0.0
2018-Feb-04 23:29N 50°54' W 001°25'0 0.0
2018-Feb-04 22:59N 50°54' W 001°25'0 0.0
2018-Feb-04 22:29N 50°54' W 001°25'0 0.0
2018-Feb-04 21:59N 50°54' W 001°25'0 0.0
2018-Feb-04 21:29N 50°54' W 001°25'0 0.0
2018-Feb-04 20:59N 50°54' W 001°25'0 0.0
2018-Feb-04 19:59N 50°54' W 001°25'0 0.0
2018-Feb-04 19:29N 50°54' W 001°25'0 0.0
2018-Feb-04 18:59N 50°54' W 001°25'0 0.0
2018-Feb-04 18:29N 50°54' W 001°25'0 0.0
2018-Feb-04 17:59N 50°54' W 001°25'0 0.0
2018-Feb-04 17:29N 50°54' W 001°25'0 0.0
2018-Feb-04 15:29N 50°54' W 001°25'0 0.0
2018-Feb-04 14:59N 50°54' W 001°25'0 0.0
2018-Feb-04 14:29N 50°54' W 001°25'0 0.0
2018-Feb-04 13:59N 50°54' W 001°25'0 0.0
2018-Feb-04 13:26N 50°54' W 001°25'0 0.0
2018-Feb-04 12:59N 50°54' W 001°25'0 0.0
2018-Feb-04 12:29N 50°54' W 001°25'0 0.0
2018-Feb-04 11:59N 50°54' W 001°25'0 0.0
2018-Feb-04 11:29N 50°54' W 001°25'0 0.0
2018-Feb-04 09:59N 50°54' W 001°25'0 0.0
2018-Feb-04 08:59N 50°54' W 001°25'0 0.0
2018-Feb-04 08:29N 50°54' W 001°25'0 0.0
2018-Feb-04 07:59N 50°54' W 001°25'0 0.0
2018-Feb-04 07:29N 50°54' W 001°25'0 0.0
2018-Feb-04 06:59N 50°54' W 001°25'0 0.0
2018-Feb-04 06:29N 50°54' W 001°25'0 0.0
2018-Feb-04 05:59N 50°54' W 001°25'0 0.0
2018-Feb-04 05:29N 50°54' W 001°25'0 0.0
2018-Feb-04 04:59N 50°54' W 001°25'0 0.0
2018-Feb-04 04:29N 50°54' W 001°25'0 0.0
2018-Feb-04 03:59N 50°54' W 001°25'0 0.0
2018-Feb-04 03:29N 50°54' W 001°25'0 0.0
2018-Feb-04 02:59N 50°54' W 001°25'0 0.0
2018-Feb-04 02:29N 50°54' W 001°25'0 0.0
2018-Feb-04 01:59N 50°54' W 001°25'0 0.0
2018-Feb-04 01:29N 50°54' W 001°25'0 0.0
2018-Feb-04 00:56N 50°54' W 001°25'0 0.0
2018-Feb-04 00:29N 50°54' W 001°25'0 0.0
2018-Feb-03 23:59N 50°54' W 001°25'0 0.0
2018-Feb-03 23:26N 50°54' W 001°25'0 0.0
2018-Feb-03 22:59N 50°54' W 001°25'0 0.0
2018-Feb-03 22:29N 50°54' W 001°25'0 0.0
2018-Feb-03 21:59N 50°54' W 001°25'0 0.0
2018-Feb-03 21:29N 50°54' W 001°25'0 0.0
2018-Feb-03 20:59N 50°54' W 001°25'0 0.0
2018-Feb-03 20:29N 50°54' W 001°25'0 0.0
2018-Feb-03 19:59N 50°54' W 001°25'0 0.0
2018-Feb-03 18:29N 50°54' W 001°25'0 0.0
2018-Feb-03 17:59N 50°54' W 001°25'0 0.0
2018-Feb-03 17:29N 50°54' W 001°25'0 0.0
2018-Feb-03 16:59N 50°54' W 001°25'0 0.0
2018-Feb-03 15:59N 50°54' W 001°25'0 0.0
2018-Feb-03 15:29N 50°54' W 001°25'0 0.0
2018-Feb-03 14:59N 50°54' W 001°25'0 0.0
2018-Feb-03 14:29N 50°54' W 001°25'0 0.0
2018-Feb-03 13:59N 50°54' W 001°25'0 0.0
2018-Feb-03 13:29N 50°54' W 001°25'0 0.0
2018-Feb-03 12:59N 50°54' W 001°25'0 0.0
2018-Feb-03 12:23N 50°54' W 001°25'0 0.0
2018-Feb-03 11:59N 50°54' W 001°25'0 0.0
2018-Feb-03 11:29N 50°54' W 001°25'0 0.0
2018-Feb-03 10:59N 50°54' W 001°25'0 0.0
2018-Feb-03 10:29N 50°54' W 001°25'0 0.0
2018-Feb-03 09:59N 50°54' W 001°25'0 0.0
2018-Feb-03 09:29N 50°54' W 001°25'0 0.0
2018-Feb-03 08:59N 50°54' W 001°25'0 0.0
2018-Feb-03 08:29N 50°54' W 001°25'0 0.0
2018-Feb-03 07:59N 50°54' W 001°25'0 0.0
2018-Feb-03 06:29N 50°54' W 001°25'0 0.0
2018-Feb-03 05:59N 50°54' W 001°25'0 0.0
2018-Feb-03 05:29N 50°54' W 001°25'0 0.0
2018-Feb-03 04:59N 50°54' W 001°25'0 0.0
2018-Feb-03 03:59N 50°54' W 001°25'0 0.0
2018-Feb-03 03:29N 50°54' W 001°25'0 0.0
2018-Feb-03 01:59N 50°54' W 001°25'0 0.0
2018-Feb-03 01:29N 50°54' W 001°25'0 0.0
2018-Feb-03 00:59N 50°54' W 001°25'0 0.0
2018-Feb-03 00:29N 50°54' W 001°25'0 0.0
2018-Feb-02 23:59N 50°54' W 001°25'0 0.0
2018-Feb-02 23:29N 50°54' W 001°25'0 0.0
2018-Feb-02 22:56N 50°54' W 001°25'0 0.0
2018-Feb-02 22:29N 50°54' W 001°25'0 0.0
2018-Feb-02 21:59N 50°54' W 001°25'0 0.0
2018-Feb-02 21:29N 50°54' W 001°25'0 0.0
2018-Feb-02 20:59N 50°54' W 001°25'0 0.0
2018-Feb-02 20:29N 50°54' W 001°25'0 0.0
2018-Feb-02 19:56N 50°54' W 001°25'0 0.0
2018-Feb-02 18:59N 50°54' W 001°25'0 0.0
2018-Feb-02 18:29N 50°54' W 001°25'0 0.0
2018-Feb-02 17:59N 50°54' W 001°25'0 0.0
2018-Feb-02 17:29N 50°54' W 001°25'0 0.0
2018-Feb-02 16:59N 50°54' W 001°25'0 0.0
2018-Feb-02 16:26N 50°54' W 001°25'0 0.0
2018-Feb-02 15:29N 50°54' W 001°25'0 0.0
2018-Feb-02 14:29N 50°54' W 001°25'0 0.0
2018-Feb-02 13:59N 50°54' W 001°25'0 0.0
2018-Feb-02 13:26N 50°54' W 001°25'0 0.0
2018-Feb-02 12:59N 50°54' W 001°25'0 0.0
2018-Feb-02 12:29N 50°54' W 001°25'0 0.0
2018-Feb-02 11:59N 50°54' W 001°25'0 0.0
2018-Feb-02 11:29N 50°54' W 001°25'0 0.0
2018-Feb-02 10:59N 50°54' W 001°25'0 0.0
2018-Feb-02 10:29N 50°54' W 001°25'0 0.0
2018-Feb-02 09:59N 50°54' W 001°25'0 0.0
2018-Feb-02 09:29N 50°54' W 001°25'0 0.0
2018-Feb-02 08:59N 50°54' W 001°25'0 0.0
2018-Feb-02 08:29N 50°54' W 001°25'0 0.0
2018-Feb-02 07:59N 50°54' W 001°25'0 0.0
2018-Feb-02 07:29N 50°54' W 001°25'0 0.0
2018-Feb-02 06:59N 50°54' W 001°25'0 0.0
2018-Feb-02 06:29N 50°54' W 001°25'0 0.0
2018-Feb-02 05:59N 50°54' W 001°25'0 0.0
2018-Feb-02 05:29N 50°54' W 001°25'0 0.0
2018-Feb-02 04:59N 50°54' W 001°25'0 0.0
2018-Feb-02 04:29N 50°54' W 001°25'0 0.0
2018-Feb-02 03:59N 50°54' W 001°25'0 0.0
2018-Feb-02 03:29N 50°54' W 001°25'0 0.0
2018-Feb-02 02:59N 50°54' W 001°25'0 0.0
2018-Feb-02 02:26N 50°54' W 001°25'0 0.0
2018-Feb-02 01:59N 50°54' W 001°25'0 0.0
2018-Feb-02 01:29N 50°54' W 001°25'0 0.0
2018-Feb-02 00:59N 50°54' W 001°25'0 0.0
2018-Feb-02 00:26N 50°54' W 001°25'0 0.0
2018-Feb-01 23:59N 50°54' W 001°25'0 0.0
2018-Feb-01 23:29N 50°54' W 001°25'0 0.0
2018-Feb-01 22:59N 50°54' W 001°25'0 0.0
2018-Feb-01 21:59N 50°54' W 001°25'0 0.0
2018-Feb-01 21:29N 50°54' W 001°25'0 0.0
2018-Feb-01 19:29N 50°54' W 001°25'0 0.0
2018-Feb-01 18:59N 50°54' W 001°25'0 0.0
2018-Feb-01 18:29N 50°54' W 001°25'0 0.0
2018-Feb-01 17:59N 50°54' W 001°25'0 0.0
2018-Feb-01 17:29N 50°54' W 001°25'0 0.0
2018-Feb-01 16:56N 50°54' W 001°25'0 0.0
2018-Feb-01 16:29N 50°54' W 001°25'0 0.0
2018-Feb-01 15:59N 50°54' W 001°25'0 0.0
2018-Feb-01 15:29N 50°54' W 001°25'0 0.0
2018-Feb-01 14:59N 50°54' W 001°25'0 0.0
2018-Feb-01 13:29N 50°54' W 001°25'0 0.0
2018-Feb-01 12:59N 50°54' W 001°25'0 0.0
2018-Feb-01 12:29N 50°54' W 001°25'0 0.0
2018-Feb-01 11:59N 50°54' W 001°25'0 0.0
2018-Feb-01 10:59N 50°54' W 001°25'0 0.0
2018-Feb-01 10:29N 50°54' W 001°25'0 0.0
2018-Feb-01 09:59N 50°54' W 001°25'0 0.0
2018-Feb-01 09:29N 50°54' W 001°25'0 0.0
2018-Feb-01 08:59N 50°54' W 001°25'0 0.0
2018-Feb-01 08:29N 50°54' W 001°25'0 0.0
2018-Feb-01 07:29N 50°54' W 001°25'0 0.0
2018-Feb-01 06:59N 50°54' W 001°25'0 0.0
2018-Feb-01 06:29N 50°54' W 001°25'0 0.0
2018-Feb-01 05:59N 50°54' W 001°25'0 0.0
2018-Feb-01 05:29N 50°54' W 001°25'0 0.0
2018-Feb-01 04:59N 50°54' W 001°25'0 0.0
2018-Feb-01 04:29N 50°54' W 001°25'0 0.0
2018-Feb-01 03:59N 50°54' W 001°25'0 0.0
2018-Feb-01 02:59N 50°54' W 001°25'0 0.0
2018-Feb-01 02:29N 50°54' W 001°25'0 0.0
2018-Feb-01 01:59N 50°54' W 001°25'0 0.0
2018-Feb-01 01:29N 50°54' W 001°25'0 0.0
2018-Feb-01 00:59N 50°54' W 001°25'0 0.0
2018-Feb-01 00:29N 50°54' W 001°25'0 0.0
2018-Jan-31 23:59N 50°54' W 001°25'0 0.0
2018-Jan-31 22:59N 50°54' W 001°25'0 0.0
2018-Jan-31 22:29N 50°54' W 001°25'0 0.0
2018-Jan-31 20:59N 50°54' W 001°25'0 0.0
2018-Jan-31 20:29N 50°54' W 001°25'0 0.0
2018-Jan-31 19:59N 50°54' W 001°25'0 0.0
2018-Jan-31 19:29N 50°54' W 001°25'0 0.0
2018-Jan-31 18:59N 50°54' W 001°25'0 0.0
2018-Jan-31 18:29N 50°54' W 001°25'0 0.0
2018-Jan-31 17:59N 50°54' W 001°25'0 0.0
2018-Jan-31 17:29N 50°54' W 001°25'0 0.0
2018-Jan-31 16:59N 50°54' W 001°25'0 0.0
2018-Jan-31 16:28N 50°54' W 001°25'0 0.0
2018-Jan-31 15:58N 50°54' W 001°25'0 0.0
2018-Jan-31 15:28N 50°54' W 001°25'0 0.0
2018-Jan-31 14:58N 50°54' W 001°25'0 0.0
2018-Jan-31 14:29N 50°54' W 001°25'0 0.0
2018-Jan-31 12:59N 50°54' W 001°25'0 0.0
2018-Jan-31 12:28N 50°54' W 001°25'0 0.0
2018-Jan-31 11:59N 50°54' W 001°25'0 0.0
2018-Jan-31 11:29N 50°54' W 001°25'0 0.0
2018-Jan-31 10:49N 50°54' W 001°25'0 0.0
2018-Jan-31 10:25N 50°54' W 001°25'0 0.0
2018-Jan-31 09:59N 50°54' W 001°25'0 0.0
2018-Jan-31 09:29N 50°54' W 001°25'0 0.0
2018-Jan-31 08:58N 50°54' W 001°25'0 0.0
2018-Jan-31 08:29N 50°54' W 001°25'0 0.0
2018-Jan-31 07:58N 50°54' W 001°25'0 0.0
2018-Jan-31 07:28N 50°54' W 001°25'0 0.0
2018-Jan-31 06:58N 50°54' W 001°25'0 0.0
2018-Jan-31 06:28N 50°54' W 001°25'0 0.0
2018-Jan-31 05:59N 50°54' W 001°25'0 0.0
2018-Jan-31 05:25N 50°54' W 001°25'0 0.0
2018-Jan-31 04:55N 50°54' W 001°25'0 0.0
2018-Jan-31 04:28N 50°54' W 001°25'0 0.0
2018-Jan-31 03:58N 50°54' W 001°25'0 0.0
2018-Jan-31 03:28N 50°54' W 001°25'0 0.0
2018-Jan-31 02:59N 50°54' W 001°25'0 0.0
2018-Jan-31 02:28N 50°54' W 001°25'0 0.0
2018-Jan-31 01:58N 50°54' W 001°25'0 0.0
2018-Jan-31 01:28N 50°54' W 001°25'0 0.0
2018-Jan-31 00:58N 50°54' W 001°25'0 0.0
2018-Jan-30 23:58N 50°54' W 001°25'0 0.0
2018-Jan-30 23:28N 50°54' W 001°25'0 0.0
2018-Jan-30 22:58N 50°54' W 001°25'0 0.0
2018-Jan-30 22:28N 50°54' W 001°25'0 0.0
2018-Jan-30 21:25N 50°54' W 001°25'0 0.0
2018-Jan-30 20:59N 50°54' W 001°25'0 0.0
2018-Jan-30 20:28N 50°54' W 001°25'0 0.0
2018-Jan-30 19:58N 50°54' W 001°25'0 0.0
2018-Jan-30 19:28N 50°54' W 001°25'0 0.0
2018-Jan-30 18:55N 50°54' W 001°25'0 0.0
2018-Jan-30 18:25N 50°54' W 001°25'0 0.0
2018-Jan-30 17:55N 50°54' W 001°25'0 0.0
2018-Jan-30 17:28N 50°54' W 001°25'0 0.0
2018-Jan-30 16:58N 50°54' W 001°25'0 0.0
2018-Jan-30 16:28N 50°54' W 001°25'0 0.0
2018-Jan-30 15:58N 50°54' W 001°25'0 0.0
2018-Jan-30 15:31N 50°54' W 001°25'0 0.3
2018-Jan-30 15:01N 50°54' W 001°25'1 2.1
2018-Jan-30 14:31N 50°54' W 001°26'1 0.7
2018-Jan-30 13:30N 50°54' W 001°28'0 0.0
2018-Jan-30 12:45N 50°54' W 001°28'0 0.0
2018-Jan-30 12:18N 50°54' W 001°28'0 0.0
2018-Jan-30 11:48N 50°54' W 001°28'0 0.0
2018-Jan-30 11:30N 50°54' W 001°28'0 0.0
2018-Jan-30 10:30N 50°54' W 001°28'0 0.0
2018-Jan-30 08:03N 50°54' W 001°28'0 0.0
2018-Jan-30 07:39N 50°54' W 001°28'0 0.0
2018-Jan-30 07:17N 50°54' W 001°28'0 0.4
2018-Jan-30 07:00N 50°54' W 001°28'2 3.4
2018-Jan-30 06:30N 50°54' W 001°25'0 0.5
2018-Jan-30 05:59N 50°54' W 001°25'0 0.0
2018-Jan-30 05:29N 50°54' W 001°25'0 0.0
2018-Jan-30 04:59N 50°54' W 001°25'0 0.0
2018-Jan-30 04:30N 50°54' W 001°25'0 0.0
2018-Jan-30 04:00N 50°54' W 001°25'0 0.0
2018-Jan-30 03:29N 50°54' W 001°25'0 0.0
2018-Jan-30 02:59N 50°54' W 001°25'0 0.0
2018-Jan-30 02:29N 50°54' W 001°25'0 0.0
2018-Jan-30 01:59N 50°54' W 001°25'0 0.0
2018-Jan-30 01:29N 50°54' W 001°25'0 0.0
2018-Jan-30 00:59N 50°54' W 001°25'0 0.0
2018-Jan-30 00:29N 50°54' W 001°25'0 0.0
2018-Jan-29 23:59N 50°54' W 001°25'0 0.0
2018-Jan-29 23:29N 50°54' W 001°25'0 0.0
2018-Jan-29 22:56N 50°54' W 001°25'0 0.0
2018-Jan-29 22:26N 50°54' W 001°25'0 0.0
2018-Jan-29 21:59N 50°54' W 001°25'0 0.0
2018-Jan-29 21:29N 50°54' W 001°25'0 0.0
2018-Jan-29 20:59N 50°54' W 001°25'0 0.0
2018-Jan-29 20:29N 50°54' W 001°25'0 0.0
2018-Jan-29 19:59N 50°54' W 001°25'0 0.0
2018-Jan-29 19:29N 50°54' W 001°25'0 0.0
2018-Jan-29 18:59N 50°54' W 001°25'0 0.0
2018-Jan-29 18:29N 50°54' W 001°25'0 0.0
2018-Jan-29 17:59N 50°54' W 001°25'0 0.0
2018-Jan-29 17:29N 50°54' W 001°25'0 0.0
2018-Jan-29 16:59N 50°54' W 001°25'0 0.0
2018-Jan-29 16:29N 50°54' W 001°25'0 0.0
2018-Jan-29 15:59N 50°54' W 001°25'0 0.0
2018-Jan-29 15:29N 50°54' W 001°25'0 0.0
2018-Jan-29 14:59N 50°54' W 001°25'0 0.0
2018-Jan-29 14:29N 50°54' W 001°25'0 0.0
2018-Jan-29 13:59N 50°54' W 001°25'0 0.0
2018-Jan-29 13:29N 50°54' W 001°25'0 0.0
2018-Jan-29 12:59N 50°54' W 001°25'0 0.0
2018-Jan-29 12:30N 50°54' W 001°25'0 0.3
2018-Jan-29 12:00N 50°54' W 001°25'1 1.9
2018-Jan-29 11:30N 50°54' W 001°26'0 0.0
2018-Jan-29 11:00N 50°54' W 001°26'0 0.0
2018-Jan-29 10:30N 50°54' W 001°26'0 0.0
2018-Jan-29 10:00N 50°54' W 001°26'0 0.0
2018-Jan-29 09:30N 50°54' W 001°26'0 0.0
2018-Jan-29 09:00N 50°54' W 001°26'0 0.0
2018-Jan-29 08:30N 50°54' W 001°26'0 0.0
2018-Jan-29 08:00N 50°54' W 001°26'0 0.1
2018-Jan-29 07:30N 50°54' W 001°26'0 0.9
2018-Jan-29 07:00N 50°54' W 001°26'3 5.5
2018-Jan-29 06:30N 50°52' W 001°23'5 9.9
2018-Jan-29 06:01N 50°49' W 001°17'4 8.0
2018-Jan-29 05:31N 50°46' W 001°13'713.9
2018-Jan-29 05:00N 50°44' W 001°02'510.0
2018-Jan-29 04:30N 50°39' W 000°59'510.4
2018-Jan-29 04:01N 50°34' W 000°60'814.2
2018-Jan-29 03:26N 50°29' W 001°10'614.3
2018-Jan-29 03:00N 50°25' W 001°18'1314.3
2018-Jan-29 02:07N 50°18' W 001°33'314.2
2018-Jan-29 01:56N 50°16' W 001°37'614.0
2018-Jan-29 01:31N 50°12' W 001°44'713.9
2018-Jan-29 01:00N 50°08' W 001°53'714.1
2018-Jan-29 00:30N 50°04' W 002°02'2913.3
2018-Jan-28 22:21N 49°53' W 002°43'513.5
2018-Jan-28 21:58N 49°51' W 002°50'713.3
2018-Jan-28 21:26N 49°48' W 002°60'913.4
2018-Jan-28 20:46N 49°43' W 003°12'1213.3
2018-Jan-28 19:53N 49°37' W 003°27'512.9
2018-Jan-28 19:28N 49°34' W 003°34'6313.6
2018-Jan-28 14:49N 49°01' W 004°57'3314.4
2018-Jan-28 12:34N 48°44' W 005°39'1314.6
2018-Jan-28 11:38N 48°32' W 005°48'  

Dump ship's entire track history